createdAt,value
2022-07-25T00:01:59.463Z,21.08
2022-07-25T00:04:26.731Z,21.13
2022-07-25T00:06:52.923Z,21.11
2022-07-25T00:09:19.081Z,21.16
2022-07-25T00:11:45.265Z,21.13
2022-07-25T00:14:11.452Z,21.07
2022-07-25T00:16:37.688Z,21.09
2022-07-25T00:19:03.931Z,21.12
2022-07-25T00:21:30.085Z,21.04
2022-07-25T00:23:56.276Z,21.05
2022-07-25T00:26:22.448Z,21.04
2022-07-25T00:28:48.747Z,21.02
2022-07-25T00:31:14.946Z,20.91
2022-07-25T00:33:41.163Z,20.94
2022-07-25T00:36:07.349Z,20.91
2022-07-25T00:38:33.557Z,20.84
2022-07-25T00:40:59.713Z,20.79
2022-07-25T00:43:25.873Z,20.73
2022-07-25T00:45:52.073Z,20.70
2022-07-25T00:48:18.685Z,20.79
2022-07-25T00:50:44.850Z,20.73
2022-07-25T00:53:11.033Z,20.73
2022-07-25T00:55:37.175Z,20.80
2022-07-25T00:58:03.354Z,20.78
2022-07-25T01:00:29.539Z,20.76
2022-07-25T01:02:56.798Z,20.76
2022-07-25T01:05:23.083Z,20.73
2022-07-25T01:07:49.275Z,20.73
2022-07-25T01:10:15.451Z,20.71
2022-07-25T01:12:41.626Z,20.70
2022-07-25T01:15:07.800Z,20.71
2022-07-25T01:17:34.016Z,20.66
2022-07-25T01:20:00.236Z,20.67
2022-07-25T01:22:26.392Z,20.57
2022-07-25T01:24:52.592Z,20.47
2022-07-25T01:27:18.764Z,20.38
2022-07-25T01:29:44.984Z,20.31
2022-07-25T01:32:11.165Z,20.29
2022-07-25T01:34:37.305Z,20.30
2022-07-25T01:37:03.485Z,20.27
2022-07-25T01:39:29.642Z,20.22
2022-07-25T01:41:55.856Z,20.22
2022-07-25T01:44:21.995Z,20.11
2022-07-25T01:46:48.231Z,20.03
2022-07-25T01:49:14.463Z,19.96
2022-07-25T01:51:40.657Z,19.99
2022-07-25T01:54:08.955Z,19.88
2022-07-25T01:56:36.719Z,19.90
2022-07-25T01:59:02.956Z,19.76
2022-07-25T02:01:29.209Z,19.84
2022-07-25T02:03:55.420Z,19.80
2022-07-25T02:06:21.567Z,19.80
2022-07-25T02:08:47.751Z,19.70
2022-07-25T02:11:14.063Z,19.70
2022-07-25T02:13:40.213Z,19.66
2022-07-25T02:16:06.392Z,19.62
2022-07-25T02:18:32.562Z,19.61
2022-07-25T02:20:58.738Z,19.65
2022-07-25T02:23:24.913Z,19.68
2022-07-25T02:25:51.100Z,19.71
2022-07-25T02:28:17.267Z,19.74
2022-07-25T02:30:43.490Z,19.81
2022-07-25T02:33:09.698Z,19.84
2022-07-25T02:35:35.872Z,19.86
2022-07-25T02:38:02.052Z,19.88
2022-07-25T02:40:28.206Z,19.82
2022-07-25T02:42:54.388Z,19.77
2022-07-25T02:45:20.539Z,19.74
2022-07-25T02:47:46.708Z,19.68
2022-07-25T02:50:15.007Z,19.58
2022-07-25T02:52:41.346Z,19.53
2022-07-25T02:55:09.732Z,19.45
2022-07-25T02:57:36.202Z,19.33
2022-07-25T03:00:02.365Z,19.33
2022-07-25T03:02:28.529Z,19.38
2022-07-25T03:04:54.713Z,19.33
2022-07-25T03:07:20.863Z,19.26
2022-07-25T03:09:47.015Z,19.23
2022-07-25T03:12:13.202Z,19.24
2022-07-25T03:14:39.370Z,19.26
2022-07-25T03:17:05.671Z,19.29
2022-07-25T03:19:31.926Z,19.30
2022-07-25T03:21:58.093Z,19.31
2022-07-25T03:24:24.280Z,19.33
2022-07-25T03:26:50.461Z,19.31
2022-07-25T03:29:16.631Z,19.33
2022-07-25T03:31:42.847Z,19.36
2022-07-25T03:34:09.258Z,19.38
2022-07-25T03:36:35.632Z,19.38
2022-07-25T03:39:01.810Z,19.42
2022-07-25T03:41:31.893Z,19.41
2022-07-25T03:43:58.052Z,19.42
2022-07-25T03:46:24.306Z,19.51
2022-07-25T03:48:50.568Z,19.45
2022-07-25T03:51:16.753Z,19.43
2022-07-25T03:53:42.926Z,19.47
2022-07-25T03:56:09.094Z,19.43
2022-07-25T03:58:35.248Z,19.41
2022-07-25T04:01:01.515Z,19.38
2022-07-25T04:03:27.944Z,19.38
2022-07-25T04:05:54.103Z,19.36
2022-07-25T04:08:20.271Z,19.32
2022-07-25T04:10:46.430Z,19.33
2022-07-25T04:13:12.628Z,19.37
2022-07-25T04:15:38.808Z,19.38
2022-07-25T04:18:04.950Z,19.38
2022-07-25T04:20:33.427Z,19.41
2022-07-25T04:22:59.611Z,19.42
2022-07-25T04:25:25.782Z,19.46
2022-07-25T04:27:51.964Z,19.46
2022-07-25T04:30:24.067Z,19.51
2022-07-25T04:32:50.927Z,19.57
2022-07-25T04:35:17.123Z,19.61
2022-07-25T04:37:43.284Z,19.70
2022-07-25T04:40:09.472Z,19.79
2022-07-25T04:42:35.629Z,19.88
2022-07-25T04:45:01.794Z,19.95
2022-07-25T04:47:27.996Z,20.05
2022-07-25T04:49:54.197Z,20.13
2022-07-25T04:52:20.397Z,20.23
2022-07-25T04:54:46.568Z,20.29
2022-07-25T04:57:12.747Z,20.36
2022-07-25T04:59:38.909Z,20.44
2022-07-25T05:02:05.165Z,20.51
2022-07-25T05:04:31.360Z,20.64
2022-07-25T05:06:57.714Z,20.71
2022-07-25T05:09:23.910Z,20.81
2022-07-25T05:11:55.913Z,20.89
2022-07-25T05:14:22.854Z,21.02
2022-07-25T05:16:49.124Z,21.13
2022-07-25T05:19:15.350Z,21.24
2022-07-25T05:21:41.504Z,21.41
2022-07-25T05:24:08.032Z,21.59
2022-07-25T05:26:34.442Z,21.76
2022-07-25T05:29:00.592Z,21.87
2022-07-25T05:31:26.773Z,22.05
2022-07-25T05:33:53.010Z,22.25
2022-07-25T05:36:19.169Z,22.57
2022-07-25T05:38:45.370Z,22.97
2022-07-25T05:41:11.529Z,23.22
2022-07-25T05:43:37.684Z,23.42
2022-07-25T05:46:03.862Z,23.72
2022-07-25T05:48:30.051Z,24.07
2022-07-25T05:50:56.297Z,24.39
2022-07-25T05:53:22.490Z,24.62
2022-07-25T05:55:48.670Z,24.86
2022-07-25T05:58:14.838Z,25.14
2022-07-25T06:00:40.991Z,25.37
2022-07-25T06:03:07.210Z,25.58
2022-07-25T06:05:33.458Z,25.73
2022-07-25T06:07:59.649Z,25.79
2022-07-25T06:10:25.845Z,25.93
2022-07-25T06:12:52.030Z,25.96
2022-07-25T06:15:22.084Z,26.13
2022-07-25T06:17:52.970Z,26.24
2022-07-25T06:20:19.341Z,26.32
2022-07-25T06:22:45.508Z,26.50
2022-07-25T06:25:11.712Z,26.69
2022-07-25T06:27:37.856Z,26.77
2022-07-25T06:30:04.021Z,26.86
2022-07-25T06:32:30.203Z,27.02
2022-07-25T06:34:56.365Z,27.13
2022-07-25T06:37:22.549Z,27.20
2022-07-25T06:39:48.753Z,27.15
2022-07-25T06:42:14.962Z,27.28
2022-07-25T06:44:42.614Z,27.41
2022-07-25T06:47:08.831Z,27.55
2022-07-25T06:49:35.042Z,27.64
2022-07-25T06:52:01.238Z,27.62
2022-07-25T06:54:27.411Z,27.67
2022-07-25T06:56:53.583Z,27.59
2022-07-25T06:59:19.776Z,27.48
2022-07-25T07:01:51.076Z,27.60
2022-07-25T07:04:17.779Z,27.63
2022-07-25T07:06:43.949Z,27.75
2022-07-25T07:09:10.136Z,27.91
2022-07-25T07:11:36.311Z,28.20
2022-07-25T07:14:02.591Z,28.24
2022-07-25T07:16:28.873Z,28.20
2022-07-25T07:18:55.088Z,28.27
2022-07-25T07:21:21.749Z,28.35
2022-07-25T07:23:48.019Z,28.48
2022-07-25T07:26:14.468Z,28.67
2022-07-25T07:28:40.666Z,28.99
2022-07-25T07:31:16.294Z,29.32
2022-07-25T07:33:43.503Z,29.34
2022-07-25T07:36:09.685Z,29.43
2022-07-25T07:38:35.893Z,29.29
2022-07-25T07:41:02.073Z,29.31
2022-07-25T07:43:30.270Z,29.35
2022-07-25T07:45:56.651Z,29.46
2022-07-25T07:48:22.842Z,29.74
2022-07-25T07:50:49.005Z,29.95
2022-07-25T07:53:15.192Z,30.05
2022-07-25T07:55:41.477Z,29.99
2022-07-25T07:58:07.653Z,30.05
2022-07-25T08:00:33.847Z,30.23
2022-07-25T08:03:00.166Z,30.20
2022-07-25T08:05:26.471Z,30.44
2022-07-25T08:07:52.637Z,30.57
2022-07-25T08:10:18.905Z,30.78
2022-07-25T08:12:45.068Z,30.74
2022-07-25T08:15:11.279Z,30.62
2022-07-25T08:17:37.457Z,30.65
2022-07-25T08:20:20.988Z,30.54
2022-07-25T08:22:54.419Z,30.67
2022-07-25T08:25:22.656Z,30.72
2022-07-25T08:27:48.855Z,31.02
2022-07-25T08:30:15.082Z,31.03
2022-07-25T08:32:41.275Z,30.80
2022-07-25T08:35:11.387Z,30.90
2022-07-25T08:37:37.840Z,30.95
2022-07-25T08:40:04.045Z,30.90
2022-07-25T08:42:30.218Z,30.99
2022-07-25T08:44:56.399Z,31.16
2022-07-25T08:47:22.629Z,31.22
2022-07-25T08:49:48.810Z,31.41
2022-07-25T08:52:14.975Z,31.35
2022-07-25T08:54:41.178Z,31.16
2022-07-25T08:57:07.375Z,31.20
2022-07-25T08:59:33.559Z,31.51
2022-07-25T09:01:59.830Z,31.64
2022-07-25T09:04:26.042Z,31.78
2022-07-25T09:06:52.270Z,31.81
2022-07-25T09:09:18.449Z,31.70
2022-07-25T09:11:44.635Z,31.95
2022-07-25T09:14:14.977Z,31.92
2022-07-25T09:16:41.682Z,32.05
2022-07-25T09:19:07.889Z,32.19
2022-07-25T09:21:34.062Z,32.27
2022-07-25T09:24:00.280Z,32.32
2022-07-25T09:26:26.602Z,32.49
2022-07-25T09:28:55.306Z,32.48
2022-07-25T09:31:21.645Z,32.70
2022-07-25T09:33:47.871Z,33.02
2022-07-25T09:36:14.080Z,33.06
2022-07-25T09:38:40.257Z,33.17
2022-07-25T09:41:06.441Z,33.30
2022-07-25T09:43:32.602Z,33.13
2022-07-25T09:45:58.894Z,33.36
2022-07-25T09:48:25.139Z,33.43
2022-07-25T09:50:51.377Z,33.61
2022-07-25T09:53:17.631Z,33.84
2022-07-25T09:55:43.822Z,33.71
2022-07-25T09:58:10.063Z,33.83
2022-07-25T10:00:36.243Z,33.66
2022-07-25T10:03:02.486Z,33.81
2022-07-25T10:05:28.763Z,33.95
2022-07-25T10:07:54.969Z,34.06
2022-07-25T10:10:21.174Z,34.37
2022-07-25T10:12:47.345Z,34.51
2022-07-25T10:15:13.548Z,34.51
2022-07-25T10:17:39.771Z,34.42
2022-07-25T10:20:05.940Z,34.07
2022-07-25T10:22:54.691Z,33.83
2022-07-25T10:25:18.280Z,33.45
2022-07-25T10:27:44.526Z,33.30
2022-07-25T10:30:10.700Z,33.04
2022-07-25T10:32:36.868Z,33.00
2022-07-25T10:35:03.043Z,33.01
2022-07-25T10:37:29.196Z,33.07
2022-07-25T10:39:55.387Z,33.09
2022-07-25T10:42:21.538Z,33.24
2022-07-25T10:44:47.731Z,33.20
2022-07-25T10:47:13.929Z,33.12
2022-07-25T10:49:50.106Z,33.29
2022-07-25T10:52:26.332Z,33.45
2022-07-25T10:54:52.525Z,33.61
2022-07-25T10:57:18.687Z,33.70
2022-07-25T10:59:44.860Z,33.89
2022-07-25T11:02:11.177Z,34.02
2022-07-25T11:04:37.392Z,33.93
2022-07-25T11:07:03.577Z,33.58
2022-07-25T11:09:29.821Z,33.38
2022-07-25T11:11:55.975Z,33.37
2022-07-25T11:14:22.153Z,33.20
2022-07-25T11:16:48.386Z,32.96
2022-07-25T11:19:14.579Z,32.93
2022-07-25T11:21:40.795Z,32.91
2022-07-25T11:24:06.952Z,33.03
2022-07-25T11:26:33.131Z,33.18
2022-07-25T11:28:59.343Z,33.14
2022-07-25T11:31:25.571Z,33.10
2022-07-25T11:33:51.777Z,33.20
2022-07-25T11:36:17.966Z,33.41
2022-07-25T11:38:44.185Z,33.57
2022-07-25T11:41:10.343Z,33.54
2022-07-25T11:43:36.571Z,33.44
2022-07-25T11:46:02.818Z,33.34
2022-07-25T11:48:29.108Z,33.55
2022-07-25T11:50:55.309Z,33.49
2022-07-25T11:53:21.493Z,33.63
2022-07-25T11:55:47.691Z,33.62
2022-07-25T11:58:13.870Z,33.98
2022-07-25T12:00:40.070Z,34.33
2022-07-25T12:03:06.418Z,34.55
2022-07-25T12:05:32.640Z,34.66
2022-07-25T12:07:58.846Z,34.96
2022-07-25T12:10:25.073Z,35.03
2022-07-25T12:12:51.232Z,34.82
2022-07-25T12:15:17.396Z,34.57
2022-07-25T12:17:43.573Z,34.34
2022-07-25T12:20:11.079Z,34.05
2022-07-25T12:22:37.318Z,33.90
2022-07-25T12:25:03.513Z,33.87
2022-07-25T12:27:29.682Z,33.80
2022-07-25T12:29:55.880Z,33.90
2022-07-25T12:32:22.108Z,34.03
2022-07-25T12:34:48.275Z,34.18
2022-07-25T12:37:14.600Z,34.24
2022-07-25T12:39:40.775Z,34.36
2022-07-25T12:42:06.976Z,34.36
2022-07-25T12:44:33.220Z,34.47
2022-07-25T12:46:59.454Z,34.62
2022-07-25T12:49:25.668Z,34.83
2022-07-25T12:51:56.169Z,34.84
2022-07-25T12:54:24.326Z,35.12
2022-07-25T12:56:50.528Z,35.40
2022-07-25T12:59:16.866Z,35.49
2022-07-25T13:01:43.109Z,35.26
2022-07-25T13:04:09.403Z,34.95
2022-07-25T13:06:38.921Z,34.62
2022-07-25T13:09:05.500Z,34.34
2022-07-25T13:11:31.889Z,34.16
2022-07-25T13:13:58.058Z,33.96
2022-07-25T13:16:24.305Z,33.93
2022-07-25T13:18:51.589Z,33.72
2022-07-25T13:21:17.798Z,33.74
2022-07-25T13:23:43.958Z,33.62
2022-07-25T13:26:10.167Z,33.71
2022-07-25T13:28:36.373Z,33.65
2022-07-25T13:31:02.561Z,33.63
2022-07-25T13:33:29.148Z,33.57
2022-07-25T13:35:55.375Z,33.51
2022-07-25T13:38:21.628Z,33.52
2022-07-25T13:40:47.784Z,33.38
2022-07-25T13:43:14.044Z,33.41
2022-07-25T13:45:40.403Z,33.40
2022-07-25T13:48:28.292Z,33.25
2022-07-25T13:50:54.759Z,33.15
2022-07-25T13:53:20.931Z,33.10
2022-07-25T13:55:47.110Z,32.92
2022-07-25T13:58:13.334Z,32.71
2022-07-25T14:00:39.575Z,32.54
2022-07-25T14:03:05.770Z,32.46
2022-07-25T14:05:31.994Z,32.33
2022-07-25T14:07:58.219Z,32.34
2022-07-25T14:10:24.424Z,32.41
2022-07-25T14:12:50.629Z,32.65
2022-07-25T14:15:16.864Z,33.24
2022-07-25T14:17:43.027Z,34.06
2022-07-25T14:20:09.279Z,34.43
2022-07-25T14:22:35.600Z,34.24
2022-07-25T14:25:01.790Z,34.04
2022-07-25T14:27:27.983Z,33.92
2022-07-25T14:29:54.198Z,33.78
2022-07-25T14:32:20.466Z,33.84
2022-07-25T14:34:46.639Z,33.96
2022-07-25T14:37:12.830Z,33.85
2022-07-25T14:39:39.050Z,33.85
2022-07-25T14:42:05.974Z,34.28
2022-07-25T14:44:32.171Z,34.50
2022-07-25T14:46:58.432Z,34.50
2022-07-25T14:49:24.701Z,34.64
2022-07-25T14:51:50.915Z,34.77
2022-07-25T14:54:17.094Z,34.94
2022-07-25T14:56:45.371Z,34.67
2022-07-25T14:59:11.613Z,34.55
2022-07-25T15:01:37.847Z,34.42
2022-07-25T15:04:04.240Z,34.69
2022-07-25T15:06:30.413Z,34.55
2022-07-25T15:08:56.645Z,34.18
2022-07-25T15:11:22.846Z,33.74
2022-07-25T15:13:49.043Z,33.67
2022-07-25T15:16:15.310Z,33.57
2022-07-25T15:19:05.498Z,33.51
2022-07-25T15:21:27.659Z,33.36
2022-07-25T15:23:54.526Z,33.54
2022-07-25T15:26:20.676Z,33.63
2022-07-25T15:28:46.874Z,33.57
2022-07-25T15:31:13.318Z,33.42
2022-07-25T15:33:39.543Z,33.32
2022-07-25T15:36:05.756Z,33.24
2022-07-25T15:41:12.019Z,33.13
2022-07-25T15:43:40.445Z,33.53
2022-07-25T15:46:06.643Z,33.84
2022-07-25T15:48:32.836Z,33.98
2022-07-25T15:51:02.595Z,34.36
2022-07-25T15:53:28.737Z,34.78
2022-07-25T15:55:54.930Z,35.07
2022-07-25T15:58:21.103Z,35.11
2022-07-25T16:00:47.329Z,34.98
2022-07-25T16:03:13.589Z,34.36
2022-07-25T16:05:39.738Z,33.87
2022-07-25T16:08:05.923Z,33.81
2022-07-25T16:10:32.116Z,33.91
2022-07-25T16:12:58.281Z,34.10
2022-07-25T16:15:24.499Z,34.14
2022-07-25T16:17:50.703Z,33.83
2022-07-25T16:20:16.867Z,33.54
2022-07-25T16:22:43.056Z,33.34
2022-07-25T16:25:09.220Z,33.61
2022-07-25T16:27:35.401Z,33.60
2022-07-25T16:30:01.588Z,33.67
2022-07-25T16:32:27.785Z,33.81
2022-07-25T16:34:54.063Z,33.83
2022-07-25T16:37:20.238Z,33.88
2022-07-25T16:39:47.549Z,33.92
2022-07-25T16:42:13.745Z,33.75
2022-07-25T16:44:39.918Z,33.62
2022-07-25T16:47:06.157Z,33.45
2022-07-25T16:49:32.390Z,33.26
2022-07-25T16:51:58.581Z,32.89
2022-07-25T16:54:24.831Z,32.58
2022-07-25T16:56:54.156Z,32.25
2022-07-25T16:59:21.815Z,31.91
2022-07-25T17:01:48.034Z,31.63
2022-07-25T17:04:14.306Z,31.33
2022-07-25T17:06:41.702Z,31.06
2022-07-25T17:09:08.310Z,30.83
2022-07-25T17:11:34.745Z,30.77
2022-07-25T17:14:00.924Z,30.74
2022-07-25T17:16:27.188Z,30.64
2022-07-25T17:18:53.487Z,30.57
2022-07-25T17:21:19.646Z,30.42
2022-07-25T17:23:45.808Z,30.36
2022-07-25T17:26:12.008Z,30.31
2022-07-25T17:28:38.178Z,30.23
2022-07-25T17:31:04.405Z,30.20
2022-07-25T17:33:30.644Z,30.06
2022-07-25T17:35:56.858Z,29.99
2022-07-25T17:38:26.460Z,29.95
2022-07-25T17:40:54.641Z,29.98
2022-07-25T17:43:20.813Z,29.98
2022-07-25T17:45:47.009Z,29.88
2022-07-25T17:48:13.209Z,29.74
2022-07-25T17:50:39.366Z,29.69
2022-07-25T17:53:05.587Z,29.60
2022-07-25T17:55:38.199Z,29.55
2022-07-25T17:58:05.035Z,29.48
2022-07-25T18:00:31.182Z,29.42
2022-07-25T18:02:57.415Z,29.40
2022-07-25T18:05:23.642Z,29.34
2022-07-25T18:07:49.839Z,29.31
2022-07-25T18:10:16.019Z,29.28
2022-07-25T18:12:42.211Z,29.21
2022-07-25T18:15:08.433Z,29.20
2022-07-25T18:17:34.616Z,29.07
2022-07-25T18:20:00.800Z,29.01
2022-07-25T18:22:26.989Z,28.92
2022-07-25T18:24:53.186Z,28.79
2022-07-25T18:27:19.360Z,28.75
2022-07-25T18:29:45.544Z,28.72
2022-07-25T18:32:11.761Z,28.63
2022-07-25T18:34:37.924Z,28.59
2022-07-25T18:37:04.109Z,28.53
2022-07-25T18:39:30.263Z,28.48
2022-07-25T18:41:56.441Z,28.40
2022-07-25T18:44:22.664Z,28.32
2022-07-25T18:46:48.892Z,28.24
2022-07-25T18:49:15.196Z,28.13
2022-07-25T18:51:41.506Z,28.09
2022-07-25T18:54:07.985Z,28.03
2022-07-25T18:56:34.471Z,27.97
2022-07-25T18:59:00.669Z,27.91
2022-07-25T19:01:28.911Z,27.93
2022-07-25T19:03:55.624Z,27.93
2022-07-25T19:06:21.863Z,27.86
2022-07-25T19:08:48.064Z,27.81
2022-07-25T19:11:14.231Z,27.81
2022-07-25T19:13:49.410Z,27.73
2022-07-25T19:16:16.552Z,27.74
2022-07-25T19:18:42.983Z,27.70
2022-07-25T19:21:09.156Z,27.67
2022-07-25T19:23:35.370Z,27.67
2022-07-25T19:26:01.566Z,27.61
2022-07-25T19:28:27.758Z,27.60
2022-07-25T19:30:54.085Z,27.49
2022-07-25T19:33:20.308Z,27.42
2022-07-25T19:35:46.466Z,27.38
2022-07-25T19:38:12.664Z,27.30
2022-07-25T19:40:38.861Z,27.28
2022-07-25T19:43:05.044Z,27.26
2022-07-25T19:45:31.212Z,27.17
2022-07-25T19:47:57.393Z,27.11
2022-07-25T19:50:23.589Z,27.03
2022-07-25T19:52:49.796Z,26.95
2022-07-25T19:55:15.996Z,26.85
2022-07-25T19:57:42.890Z,26.71
2022-07-25T20:00:09.069Z,26.76
2022-07-25T20:02:35.318Z,26.70
2022-07-25T20:05:01.537Z,26.62
2022-07-25T20:07:27.743Z,26.54
2022-07-25T20:09:53.953Z,26.48
2022-07-25T20:12:20.149Z,26.42
2022-07-25T20:14:46.332Z,26.37
2022-07-25T20:17:12.526Z,26.31
2022-07-25T20:19:42.690Z,26.30
2022-07-25T20:22:08.994Z,26.20
2022-07-25T20:24:35.223Z,26.18
2022-07-25T20:27:01.401Z,26.13
2022-07-25T20:29:27.604Z,26.08
2022-07-25T20:31:53.787Z,26.02
2022-07-25T20:34:19.997Z,26.00
2022-07-25T20:36:46.223Z,25.93
2022-07-25T20:39:12.396Z,25.86
2022-07-25T20:41:39.281Z,25.79
2022-07-25T20:44:05.473Z,25.79
2022-07-25T20:46:31.767Z,25.73
2022-07-25T20:48:58.056Z,25.76
2022-07-25T20:51:24.291Z,25.71
2022-07-25T20:53:51.654Z,25.69
2022-07-25T20:56:19.948Z,25.62
2022-07-25T20:58:46.147Z,25.61
2022-07-25T21:01:12.366Z,25.63
2022-07-25T21:03:38.624Z,25.62
2022-07-25T21:06:04.811Z,25.57
2022-07-25T21:08:30.976Z,25.53
2022-07-25T21:10:57.149Z,25.56
2022-07-25T21:13:23.444Z,25.55
2022-07-25T21:15:49.625Z,25.49
2022-07-25T21:18:17.624Z,25.46
2022-07-25T21:20:43.827Z,25.41
2022-07-25T21:23:09.980Z,25.29
2022-07-25T21:25:36.345Z,25.27
2022-07-25T21:28:02.536Z,25.23
2022-07-25T21:30:28.685Z,25.18
2022-07-25T21:32:54.877Z,25.11
2022-07-25T21:35:21.029Z,25.13
2022-07-25T21:37:47.217Z,25.07
2022-07-25T21:40:13.373Z,24.98
2022-07-25T21:42:39.553Z,24.96
2022-07-25T21:45:05.718Z,24.99
2022-07-25T21:47:31.904Z,24.90
2022-07-25T21:49:58.052Z,24.86
2022-07-25T21:52:26.713Z,24.84
2022-07-25T21:55:00.148Z,24.74
2022-07-25T21:57:26.300Z,24.71
2022-07-25T21:59:52.459Z,24.73
2022-07-25T22:02:18.667Z,24.66
2022-07-25T22:04:44.849Z,24.62
2022-07-25T22:07:11.025Z,24.60
2022-07-25T22:09:37.223Z,24.55
2022-07-25T22:12:03.605Z,24.51
2022-07-25T22:14:29.824Z,24.46
2022-07-25T22:16:56.054Z,24.45
2022-07-25T22:19:22.756Z,24.39
2022-07-25T22:21:49.044Z,24.41
2022-07-25T22:24:15.217Z,24.40
2022-07-25T22:26:41.402Z,24.53
2022-07-25T22:29:07.777Z,24.52
2022-07-25T22:31:34.371Z,24.48
2022-07-25T22:34:00.631Z,24.54
2022-07-25T22:36:26.815Z,24.60
2022-07-25T22:38:52.990Z,24.52
2022-07-25T22:41:19.175Z,24.52
2022-07-25T22:43:58.926Z,24.48
2022-07-25T22:46:25.775Z,24.53
2022-07-25T22:48:52.064Z,24.54
2022-07-25T22:51:18.307Z,24.51
2022-07-25T22:53:44.503Z,24.50
2022-07-25T22:56:10.677Z,24.50
2022-07-25T22:58:36.845Z,24.49
2022-07-25T23:01:03.016Z,24.43
2022-07-25T23:03:32.329Z,24.40
2022-07-25T23:05:59.226Z,24.45
2022-07-25T23:08:25.458Z,24.39
2022-07-25T23:10:51.613Z,24.41
2022-07-25T23:13:17.762Z,24.42
2022-07-25T23:15:50.379Z,24.47
2022-07-25T23:18:17.678Z,24.46
2022-07-25T23:20:43.854Z,24.45
2022-07-25T23:23:10.025Z,24.47
2022-07-25T23:25:36.174Z,24.44
2022-07-25T23:28:02.372Z,24.44
2022-07-25T23:30:28.561Z,24.42
2022-07-25T23:32:54.731Z,24.46
2022-07-25T23:35:20.882Z,24.42
2022-07-25T23:37:47.069Z,24.48
2022-07-25T23:40:13.218Z,24.43
2022-07-25T23:42:39.368Z,24.43
2022-07-25T23:45:05.956Z,24.43
2022-07-25T23:47:39.347Z,24.50
2022-07-25T23:50:05.980Z,24.45
2022-07-25T23:52:32.137Z,24.52
2022-07-25T23:54:58.300Z,24.50
2022-07-25T23:57:24.501Z,24.44
2022-07-25T23:59:50.658Z,24.39
